Time;durP1;ratioP1;P1;durP2;ratioP2;P2;SDS_P1;SDS_P2;PMS_P1;PMS_P2;Temp;Humidity;BMP_temperature;BMP_pressure;BME280_temperature;BME280_humidity;BME280_pressure;Samples;Min_cycle;Max_cycle;Signal;HPM_P1;HPM_P2
2022/08/15 16:56:48;;;;;;;7.25;4.07;;;;;;;;;;5052491;28;20488;-45
2022/08/15 16:59:59;;;;;;;9.52;4.20;;;;;;;;;;5062679;28;20051;-48
2022/08/15 17:02:46;;;;;;;13.45;4.60;;;;;;;;;;4963226;28;20035;-46
2022/08/15 17:05:25;;;;;;;9.95;4.78;;;;;;;;;;4959126;28;20046;-46
2022/08/15 17:07:59;;;;;;;14.15;4.82;;;;;;;;;;4958716;28;20027;-45
2022/08/15 17:10:30;;;;;;;10.45;4.43;;;;;;;;;;4962316;28;20097;-46
2022/08/15 17:13:08;;;;;;;6.03;4.25;;;;;;;;;;4960407;28;20500;-46
2022/08/15 17:15:46;;;;;;;7.05;4.45;;;;;;;;;;4959356;28;20146;-46
2022/08/15 17:18:31;;;;;;;6.65;4.28;;;;;;;;;;4957930;28;20815;-47
2022/08/15 17:21:16;;;;;;;8.98;4.93;;;;;;;;;;4963481;28;20025;-48
2022/08/15 17:24:03;;;;;;;9.35;4.95;;;;;;;;;;4961345;28;20042;-48
2022/08/15 17:26:33;;;;;;;10.50;5.13;;;;;;;;;;4963913;28;20439;-49
2022/08/15 17:29:14;;;;;;;9.32;5.65;;;;;;;;;;4960883;28;20190;-47
2022/08/15 17:31:42;;;;;;;9.03;5.03;;;;;;;;;;4959515;28;20072;-46
2022/08/15 17:34:20;;;;;;;12.10;4.88;;;;;;;;;;4962943;28;20365;-47
2022/08/15 17:36:46;;;;;;;13.00;4.70;;;;;;;;;;5024606;28;20040;-46
2022/08/15 17:39:19;;;;;;;8.52;4.60;;;;;;;;;;5062634;28;20788;-48
2022/08/15 17:41:48;;;;;;;6.90;4.30;;;;;;;;;;5060586;28;20033;-45
2022/08/15 17:44:16;;;;;;;6.60;4.07;;;;;;;;;;5058385;28;20544;-49
2022/08/15 17:46:47;;;;;;;7.85;4.72;;;;;;;;;;5058703;28;20048;-45
2022/08/15 17:49:17;;;;;;;8.02;4.55;;;;;;;;;;5057130;28;20033;-51
2022/08/15 17:52:16;;;;;;;9.90;4.85;;;;;;;;;;5060253;28;20074;-46
2022/08/15 17:54:49;;;;;;;8.63;4.82;;;;;;;;;;5048004;28;20048;-47
2022/08/15 17:57:41;;;;;;;5.75;4.43;;;;;;;;;;5062027;28;20043;-47
2022/08/15 18:00:17;;;;;;;12.48;5.20;;;;;;;;;;5058970;28;20025;-49
2022/08/15 18:02:43;;;;;;;11.25;4.88;;;;;;;;;;5059881;28;20031;-46
2022/08/15 18:05:11;;;;;;;11.23;5.22;;;;;;;;;;5060285;28;20107;-45
2022/08/15 18:07:39;;;;;;;7.32;4.53;;;;;;;;;;5042316;28;20036;-46
2022/08/15 18:10:13;;;;;;;11.73;4.63;;;;;;;;;;5048325;28;20147;-46
2022/08/15 18:12:39;;;;;;;6.60;4.38;;;;;;;;;;5047808;28;20079;-48
2022/08/15 18:15:06;;;;;;;11.05;4.78;;;;;;;;;;5048389;28;20036;-49
2022/08/15 18:17:32;;;;;;;11.73;4.60;;;;;;;;;;5048028;28;20037;-45
2022/08/15 18:20:38;;;;;;;9.20;4.65;;;;;;;;;;5045029;28;20170;-46
2022/08/15 18:23:14;;;;;;;7.28;4.57;;;;;;;;;;5025308;28;20045;-47
2022/08/15 18:25:39;;;;;;;16.13;5.60;;;;;;;;;;5023246;28;20055;-46
2022/08/15 18:28:13;;;;;;;10.00;5.50;;;;;;;;;;5024634;28;20034;-45
2022/08/15 18:30:39;;;;;;;9.70;5.20;;;;;;;;;;5026597;28;20030;-48
2022/08/15 18:33:18;;;;;;;8.00;5.30;;;;;;;;;;5026484;28;20037;-46
2022/08/15 18:35:45;;;;;;;15.30;5.78;;;;;;;;;;5023838;28;20037;-45
2022/08/15 18:38:13;;;;;;;8.10;5.28;;;;;;;;;;5024467;28;20048;-45
2022/08/15 18:41:06;;;;;;;7.85;5.00;;;;;;;;;;5026751;28;20167;-47
2022/08/15 18:43:40;;;;;;;8.43;5.47;;;;;;;;;;5016845;28;20038;-49
2022/08/15 18:46:14;;;;;;;7.18;5.30;;;;;;;;;;5025432;28;20025;-46
2022/08/15 18:48:40;;;;;;;7.75;4.80;;;;;;;;;;5025412;28;20586;-45
2022/08/15 18:51:16;;;;;;;9.30;4.80;;;;;;;;;;5020649;28;20044;-47
2022/08/15 18:53:46;;;;;;;7.35;3.90;;;;;;;;;;5022204;28;20481;-47
2022/08/15 18:56:21;;;;;;;17.85;4.22;;;;;;;;;;5004804;28;20061;-49
2022/08/15 18:58:48;;;;;;;12.10;4.97;;;;;;;;;;5001128;28;20046;-45
2022/08/15 19:01:18;;;;;;;8.35;4.13;;;;;;;;;;5003997;28;20038;-47
2022/08/15 19:03:48;;;;;;;8.15;4.15;;;;;;;;;;5005259;28;20029;-45
2022/08/15 19:06:28;;;;;;;8.27;4.60;;;;;;;;;;5002928;28;20200;-50
2022/08/15 19:08:55;;;;;;;13.35;4.65;;;;;;;;;;5005555;28;20034;-45
2022/08/15 19:11:36;;;;;;;6.57;4.35;;;;;;;;;;5008036;28;20113;-49
2022/08/15 19:14:06;;;;;;;7.20;3.80;;;;;;;;;;5002482;28;20510;-46
2022/08/15 19:16:46;;;;;;;6.97;4.43;;;;;;;;;;5006986;28;20139;-47
2022/08/15 19:19:43;;;;;;;6.28;4.03;;;;;;;;;;5006185;28;20033;-45
2022/08/15 19:22:11;;;;;;;6.95;4.20;;;;;;;;;;5004920;28;20092;-45
2022/08/15 19:24:37;;;;;;;6.20;4.68;;;;;;;;;;5005232;28;20022;-46
2022/08/15 19:27:29;;;;;;;9.48;4.43;;;;;;;;;;5006437;28;20022;-47
2022/08/15 19:30:20;;;;;;;7.35;4.72;;;;;;;;;;5001219;28;20037;-45
2022/08/15 19:33:13;;;;;;;7.75;4.07;;;;;;;;;;5000130;28;20038;-45
2022/08/15 19:35:52;;;;;;;12.02;4.57;;;;;;;;;;5003177;28;20037;-50
2022/08/15 19:38:35;;;;;;;9.15;4.82;;;;;;;;;;5004300;28;20042;-47
2022/08/15 19:41:40;;;;;;;5.38;4.55;;;;;;;;;;5007426;28;20026;-45
2022/08/15 19:44:25;;;;;;;10.02;4.57;;;;;;;;;;5006668;28;20068;-48
2022/08/15 19:46:59;;;;;;;4.80;4.18;;;;;;;;;;5003088;28;20049;-45
2022/08/15 19:52:58;;;;;;;5.47;4.70;;;;;;;;;;5006788;28;20030;-49
2022/08/15 19:55:27;;;;;;;8.13;4.63;;;;;;;;;;5021594;28;20056;-47
2022/08/15 19:57:59;;;;;;;7.00;4.88;;;;;;;;;;5043488;28;20036;-46
2022/08/15 20:00:35;;;;;;;8.88;4.80;;;;;;;;;;5044341;28;20028;-48
2022/08/15 20:03:33;;;;;;;7.25;4.28;;;;;;;;;;5043910;28;20036;-46
2022/08/15 20:06:36;;;;;;;6.55;5.00;;;;;;;;;;5044515;28;20289;-46
2022/08/15 20:09:15;;;;;;;10.07;5.20;;;;;;;;;;4965936;28;20038;-46
2022/08/15 20:12:05;;;;;;;9.02;5.40;;;;;;;;;;4965664;28;20077;-50
2022/08/15 20:14:46;;;;;;;7.03;5.22;;;;;;;;;;4965144;28;20039;-49
2022/08/15 20:17:36;;;;;;;7.10;5.03;;;;;;;;;;4962600;28;20036;-46
2022/08/15 20:20:18;;;;;;;7.90;5.53;;;;;;;;;;4964631;28;20049;-45
2022/08/15 20:22:44;;;;;;;;;;;;;;;;;;4965494;28;20035;-46
2022/08/15 20:25:12;;;;;;;7.07;5.38;;;;;;;;;;4961576;28;20282;-49
2022/08/15 20:27:41;;;;;;;6.43;4.78;;;;;;;;;;4966240;28;20517;-45
2022/08/15 20:30:10;;;;;;;8.35;5.20;;;;;;;;;;4965290;28;20069;-45
2022/08/15 20:32:47;;;;;;;11.70;5.95;;;;;;;;;;4965078;28;20043;-46
2022/08/15 20:35:27;;;;;;;6.75;5.68;;;;;;;;;;4966358;28;20035;-46
2022/08/15 20:38:03;;;;;;;9.93;5.28;;;;;;;;;;4964630;28;20045;-45
2022/08/15 20:40:37;;;;;;;6.32;5.38;;;;;;;;;;4965209;28;20039;-47
2022/08/15 20:43:17;;;;;;;8.73;4.85;;;;;;;;;;4962875;28;20364;-46
2022/08/15 20:45:47;;;;;;;10.20;5.78;;;;;;;;;;5039648;28;20448;-46
2022/08/15 20:48:23;;;;;;;9.07;5.32;;;;;;;;;;5040904;28;20037;-48
2022/08/15 20:50:51;;;;;;;8.10;5.15;;;;;;;;;;5044230;28;20025;-47
2022/08/15 20:53:18;;;;;;;9.10;5.40;;;;;;;;;;5045855;28;20041;-46
2022/08/15 20:55:50;;;;;;;7.20;5.38;;;;;;;;;;5041566;28;20059;-47
2022/08/15 20:58:18;;;;;;;7.35;4.75;;;;;;;;;;5041387;28;20389;-48
2022/08/15 21:01:17;;;;;;;9.00;5.47;;;;;;;;;;5041462;28;20029;-46
2022/08/15 21:04:01;;;;;;;7.40;5.38;;;;;;;;;;5041925;28;20374;-47
2022/08/15 21:06:44;;;;;;;12.52;5.90;;;;;;;;;;5044439;28;20041;-46
2022/08/15 21:09:18;;;;;;;7.57;5.15;;;;;;;;;;5043614;28;20032;-51
2022/08/15 21:11:59;;;;;;;6.40;5.18;;;;;;;;;;5044568;28;20663;-49
2022/08/15 21:14:35;;;;;;;11.43;5.82;;;;;;;;;;5043137;28;20088;-48
2022/08/15 21:17:20;;;;;;;7.35;5.05;;;;;;;;;;5041329;28;20028;-45
2022/08/15 21:20:05;;;;;;;7.45;5.60;;;;;;;;;;5046563;28;20032;-47
2022/08/15 21:22:59;;;;;;;7.40;5.63;;;;;;;;;;5042835;28;20499;-46
2022/08/15 21:25:36;;;;;;;10.60;6.03;;;;;;;;;;4982963;28;20415;-45
2022/08/15 21:28:10;;;;;;;7.82;5.72;;;;;;;;;;4982639;28;20049;-48
2022/08/15 21:30:51;;;;;;;6.15;5.55;;;;;;;;;;4985636;28;20049;-48
2022/08/15 21:33:45;;;;;;;7.60;5.90;;;;;;;;;;4981801;28;20049;-45
2022/08/15 21:36:19;;;;;;;9.98;5.75;;;;;;;;;;4923815;29;20035;-48
2022/08/15 21:39:07;;;;;;;8.13;6.40;;;;;;;;;;4926985;29;20063;-49
2022/08/15 21:41:39;;;;;;;10.65;6.22;;;;;;;;;;4926161;29;20527;-48
2022/08/15 21:44:26;;;;;;;8.57;5.55;;;;;;;;;;4931588;29;20509;-49
2022/08/15 21:46:54;;;;;;;9.68;6.10;;;;;;;;;;4930006;29;20503;-47
2022/08/15 21:49:32;;;;;;;8.60;6.25;;;;;;;;;;4929946;29;20106;-46
2022/08/15 21:51:59;;;;;;;7.68;5.80;;;;;;;;;;4930973;29;20028;-49
2022/08/15 21:54:26;;;;;;;7.05;5.60;;;;;;;;;;4913260;29;20130;-48
2022/08/15 21:57:04;;;;;;;8.32;6.45;;;;;;;;;;4927206;29;20461;-52
2022/08/15 21:59:42;;;;;;;7.75;5.80;;;;;;;;;;4929312;29;20039;-48
2022/08/15 22:02:12;;;;;;;10.13;6.30;;;;;;;;;;4953577;28;20145;-50
2022/08/15 22:04:43;;;;;;;15.63;6.60;;;;;;;;;;4982977;28;20030;-48
2022/08/15 22:07:13;;;;;;;15.50;6.57;;;;;;;;;;4986623;28;20129;-46
2022/08/15 22:09:42;;;;;;;10.30;6.28;;;;;;;;;;4984702;28;20487;-48
2022/08/15 22:12:30;;;;;;;5.53;5.07;;;;;;;;;;5002143;28;20040;-47
2022/08/15 22:14:57;;;;;;;7.88;6.95;;;;;;;;;;5046864;28;20029;-51
2022/08/15 22:17:24;;;;;;;8.65;6.53;;;;;;;;;;5047546;28;20037;-51
2022/08/15 22:19:50;;;;;;;12.10;6.85;;;;;;;;;;5046153;28;20065;-48
2022/08/15 22:22:18;;;;;;;7.43;6.65;;;;;;;;;;5046812;28;20029;-45
2022/08/15 22:24:46;;;;;;;11.07;6.60;;;;;;;;;;5046167;28;20035;-46
2022/08/15 22:27:12;;;;;;;9.38;6.85;;;;;;;;;;5046570;28;20086;-46
2022/08/15 22:29:41;;;;;;;9.52;6.20;;;;;;;;;;5047317;28;20125;-48
2022/08/15 22:32:12;;;;;;;11.43;6.45;;;;;;;;;;5046122;28;20029;-48
2022/08/15 22:34:38;;;;;;;7.78;6.72;;;;;;;;;;5046613;28;20438;-47
2022/08/15 22:37:04;;;;;;;11.85;7.22;;;;;;;;;;5046090;28;20041;-47
2022/08/15 22:39:30;;;;;;;12.00;7.15;;;;;;;;;;5045647;28;20037;-48
2022/08/15 22:42:02;;;;;;;7.15;6.45;;;;;;;;;;5044879;28;20038;-45
2022/08/15 22:44:32;;;;;;;15.25;5.82;;;;;;;;;;5045396;28;20511;-46
2022/08/15 22:47:00;;;;;;;8.57;6.50;;;;;;;;;;5045849;28;20025;-47
2022/08/15 22:49:30;;;;;;;10.10;6.63;;;;;;;;;;5047472;28;20032;-47
2022/08/15 22:52:03;;;;;;;8.45;6.90;;;;;;;;;;5046840;28;20085;-47
2022/08/15 22:54:32;;;;;;;10.23;6.75;;;;;;;;;;5043208;28;20096;-48
2022/08/15 22:57:06;;;;;;;7.88;7.07;;;;;;;;;;5047156;28;20074;-46
2022/08/15 23:00:01;;;;;;;7.82;6.40;;;;;;;;;;5046091;28;20024;-43
2022/08/15 23:02:34;;;;;;;8.73;6.22;;;;;;;;;;5042906;28;20080;-45
2022/08/15 23:05:19;;;;;;;7.80;6.28;;;;;;;;;;5046839;28;20032;-46
2022/08/15 23:08:03;;;;;;;9.32;6.95;;;;;;;;;;5044125;28;20065;-45
2022/08/15 23:10:37;;;;;;;10.45;6.18;;;;;;;;;;5044740;28;20040;-46
2022/08/15 23:13:14;;;;;;;7.13;6.45;;;;;;;;;;5043439;28;20040;-47
2022/08/15 23:15:46;;;;;;;7.80;6.07;;;;;;;;;;5046411;28;20025;-45
2022/08/15 23:18:17;;;;;;;9.32;6.45;;;;;;;;;;5045439;28;20035;-46
2022/08/15 23:20:48;;;;;;;18.57;6.90;;;;;;;;;;5045543;28;20025;-46
2022/08/15 23:23:24;;;;;;;10.23;6.40;;;;;;;;;;5043497;28;21084;-47
2022/08/15 23:25:52;;;;;;;7.50;6.75;;;;;;;;;;5045519;28;20041;-50
2022/08/15 23:28:34;;;;;;;9.35;6.95;;;;;;;;;;5046944;28;20033;-45
2022/08/15 23:31:07;;;;;;;7.03;5.85;;;;;;;;;;5044489;28;20029;-46
2022/08/15 23:33:35;;;;;;;8.07;6.30;;;;;;;;;;5042586;28;20435;-46
2022/08/15 23:36:04;;;;;;;12.90;6.38;;;;;;;;;;5044707;28;20021;-46
2022/08/15 23:38:31;;;;;;;7.65;6.28;;;;;;;;;;5043504;28;20060;-46
2022/08/15 23:41:04;;;;;;;7.03;6.15;;;;;;;;;;5047777;28;20056;-47
2022/08/15 23:43:30;;;;;;;8.80;6.20;;;;;;;;;;5047677;28;20538;-48
2022/08/15 23:45:56;;;;;;;7.07;6.40;;;;;;;;;;5046315;28;20109;-45
2022/08/15 23:48:22;;;;;;;7.03;6.03;;;;;;;;;;5044476;28;20839;-45
2022/08/15 23:50:48;;;;;;;9.48;6.03;;;;;;;;;;5044170;28;20033;-45
2022/08/15 23:53:15;;;;;;;7.95;5.82;;;;;;;;;;5045820;28;20068;-45
2022/08/15 23:55:42;;;;;;;10.02;6.00;;;;;;;;;;5041518;28;20080;-49
2022/08/15 23:58:11;;;;;;;8.55;6.30;;;;;;;;;;5051267;28;20049;-45
